createdAt,value
2024-02-02T00:01:16.648Z,97276.50
2024-02-02T00:03:45.081Z,97277.88
2024-02-02T00:06:13.503Z,97261.69
2024-02-02T00:08:41.663Z,97276.34
2024-02-02T00:11:09.716Z,97283.63
2024-02-02T00:13:38.249Z,97295.97
2024-02-02T00:16:06.712Z,97277.88
2024-02-02T00:18:34.758Z,97293.50
2024-02-02T00:21:03.288Z,97265.94
2024-02-02T00:23:31.405Z,97280.94
2024-02-02T00:26:00.436Z,97298.13
2024-02-02T00:28:28.338Z,97278.41
2024-02-02T00:30:56.572Z,97296.09
2024-02-02T00:33:24.521Z,97290.91
2024-02-02T00:35:52.696Z,97298.63
2024-02-02T00:38:20.704Z,97314.53
2024-02-02T00:40:49.380Z,97302.09
2024-02-02T00:43:17.521Z,97301.19
2024-02-02T00:45:45.412Z,97295.78
2024-02-02T00:48:13.324Z,97301.84
2024-02-02T00:50:41.165Z,97314.38
2024-02-02T00:53:08.893Z,97308.50
2024-02-02T00:55:36.538Z,97300.97
2024-02-02T00:58:04.460Z,97291.78
2024-02-02T01:00:35.350Z,97294.22
2024-02-02T01:03:04.046Z,97312.84
2024-02-02T01:05:34.243Z,97304.16
2024-02-02T01:08:03.601Z,97309.59
2024-02-02T01:10:32.494Z,97300.06
2024-02-02T01:13:00.934Z,97298.91
2024-02-02T01:15:29.177Z,97308.72
2024-02-02T01:17:57.448Z,97293.38
2024-02-02T01:20:25.747Z,97297.22
2024-02-02T01:23:43.885Z,97310.69
2024-02-02T01:26:12.131Z,97316.69
2024-02-02T01:28:40.383Z,97314.03
2024-02-02T01:31:08.428Z,97292.91
2024-02-02T01:33:36.689Z,97281.97
2024-02-02T01:36:04.995Z,97294.50
2024-02-02T01:38:32.834Z,97297.47
2024-02-02T01:41:00.882Z,97296.13
2024-02-02T01:43:28.919Z,97283.88
2024-02-02T01:45:56.731Z,97290.59
2024-02-02T01:48:25.836Z,97296.22
2024-02-02T01:50:53.666Z,97295.81
2024-02-02T01:53:21.576Z,97295.81
2024-02-02T01:55:49.622Z,97301.56
2024-02-02T01:58:17.547Z,97299.06
2024-02-02T02:00:45.423Z,97281.59
2024-02-02T02:03:13.430Z,97286.56
2024-02-02T02:05:41.705Z,97279.13
2024-02-02T02:08:09.529Z,97279.56
2024-02-02T02:10:37.904Z,97287.06
2024-02-02T02:13:06.270Z,97279.56
2024-02-02T02:15:35.493Z,97278.69
2024-02-02T02:18:03.683Z,97289.44
2024-02-02T02:20:31.900Z,97280.66
2024-02-02T02:22:59.548Z,97262.75
2024-02-02T02:25:27.261Z,97271.81
2024-02-02T02:27:55.016Z,97274.41
2024-02-02T02:30:22.806Z,97276.00
2024-02-02T02:32:50.832Z,97263.63
2024-02-02T02:35:18.617Z,97263.84
2024-02-02T02:37:46.484Z,97285.88
2024-02-02T02:40:14.206Z,97285.88
2024-02-02T02:42:42.247Z,97289.50
2024-02-02T02:45:10.504Z,97269.22
2024-02-02T02:47:38.737Z,97263.22
2024-02-02T02:50:07.368Z,97264.81
2024-02-02T02:52:35.072Z,97257.75
2024-02-02T02:55:02.861Z,97259.03
2024-02-02T02:57:30.675Z,97247.38
2024-02-02T02:59:58.634Z,97256.44
2024-02-02T03:02:26.397Z,97266.69
2024-02-02T03:04:54.037Z,97270.00
2024-02-02T03:07:21.943Z,97261.53
2024-02-02T03:09:49.874Z,97279.06
2024-02-02T03:12:17.709Z,97263.78
2024-02-02T03:14:45.927Z,97268.25
2024-02-02T03:17:13.979Z,97277.00
2024-02-02T03:19:41.773Z,97268.94
2024-02-02T03:22:09.650Z,97273.78
2024-02-02T03:24:37.759Z,97278.72
2024-02-02T03:27:05.806Z,97274.97
2024-02-02T03:29:33.729Z,97270.69
2024-02-02T03:32:01.416Z,97272.94
2024-02-02T03:34:29.337Z,97272.63
2024-02-02T03:36:57.214Z,97275.81
2024-02-02T03:39:25.480Z,97261.50
2024-02-02T03:41:53.179Z,97259.28
2024-02-02T03:44:21.150Z,97256.63
2024-02-02T03:46:49.136Z,97261.91
2024-02-02T03:49:17.660Z,97257.59
2024-02-02T03:51:45.884Z,97266.06
2024-02-02T03:54:14.292Z,97257.34
2024-02-02T03:56:44.204Z,97266.13
2024-02-02T03:59:12.208Z,97262.84
2024-02-02T04:01:39.920Z,97260.38
2024-02-02T04:04:08.367Z,97283.25
2024-02-02T04:06:36.346Z,97271.50
2024-02-02T04:09:05.268Z,97292.78
2024-02-02T04:11:33.135Z,97288.59
2024-02-02T04:14:00.871Z,97289.66
2024-02-02T04:16:29.487Z,97295.63
2024-02-02T04:18:57.877Z,97284.53
2024-02-02T04:21:25.877Z,97286.13
2024-02-02T04:23:54.010Z,97292.78
2024-02-02T04:26:22.073Z,97303.09
2024-02-02T04:28:50.558Z,97302.38
2024-02-02T04:31:18.679Z,97284.31
2024-02-02T04:33:46.597Z,97297.88
2024-02-02T04:36:14.293Z,97317.28
2024-02-02T04:38:43.317Z,97321.31
2024-02-02T04:41:11.072Z,97319.69
2024-02-02T04:43:38.715Z,97324.50
2024-02-02T04:46:06.953Z,97326.88
2024-02-02T04:48:35.236Z,97319.34
2024-02-02T04:51:03.618Z,97328.84
2024-02-02T04:53:31.628Z,97335.19
2024-02-02T04:55:59.914Z,97323.78
2024-02-02T04:58:29.733Z,97331.44
2024-02-02T05:00:57.857Z,97336.59
2024-02-02T05:03:26.205Z,97337.91
2024-02-02T05:05:54.539Z,97333.28
2024-02-02T05:08:22.851Z,97339.69
2024-02-02T05:10:50.834Z,97318.47
2024-02-02T05:13:18.978Z,97334.91
2024-02-02T05:15:47.658Z,97337.84
2024-02-02T05:18:15.914Z,97345.13
2024-02-02T05:20:44.266Z,97355.41
2024-02-02T05:23:12.176Z,97344.03
2024-02-02T05:25:40.142Z,97344.25
2024-02-02T05:28:07.941Z,97347.88
2024-02-02T05:30:37.172Z,97356.22
2024-02-02T05:33:05.930Z,97334.47
2024-02-02T05:35:33.888Z,97341.22
2024-02-02T05:38:01.654Z,97325.75
2024-02-02T05:40:32.804Z,97336.38
2024-02-02T05:43:31.418Z,97328.63
2024-02-02T05:46:00.026Z,97334.09
2024-02-02T05:48:27.894Z,97329.22
2024-02-02T05:50:55.880Z,97330.03
2024-02-02T05:53:23.563Z,97329.66
2024-02-02T05:55:51.530Z,97340.94
2024-02-02T05:58:19.271Z,97340.72
2024-02-02T06:00:47.055Z,97347.22
2024-02-02T06:03:14.905Z,97354.81
2024-02-02T06:05:42.706Z,97356.56
2024-02-02T06:08:10.682Z,97360.56
2024-02-02T06:10:38.518Z,97352.81
2024-02-02T06:13:06.296Z,97360.19
2024-02-02T06:15:34.016Z,97361.53
2024-02-02T06:18:01.870Z,97358.78
2024-02-02T06:20:29.626Z,97358.28
2024-02-02T06:22:57.465Z,97347.47
2024-02-02T06:25:25.280Z,97359.75
2024-02-02T06:27:53.036Z,97346.75
2024-02-02T06:30:20.967Z,97360.22
2024-02-02T06:32:50.655Z,97365.06
2024-02-02T06:35:18.449Z,97364.63
2024-02-02T06:37:46.176Z,97376.78
2024-02-02T06:40:14.583Z,97379.72
2024-02-02T06:42:42.372Z,97382.16
2024-02-02T06:45:10.585Z,97391.59
2024-02-02T06:47:39.775Z,97378.63
2024-02-02T06:50:08.382Z,97380.63
2024-02-02T06:52:37.518Z,97381.06
2024-02-02T06:55:05.692Z,97393.91
2024-02-02T06:57:33.710Z,97380.84
2024-02-02T07:00:01.824Z,97393.44
2024-02-02T07:02:32.315Z,97391.91
2024-02-02T07:05:01.324Z,97395.88
2024-02-02T07:07:29.536Z,97394.31
2024-02-02T07:09:57.769Z,97397.66
2024-02-02T07:12:43.749Z,97402.66
2024-02-02T07:15:58.274Z,97391.09
2024-02-02T07:18:37.679Z,97396.69
2024-02-02T07:21:08.746Z,97408.50
2024-02-02T07:23:38.338Z,97394.31
2024-02-02T07:26:13.492Z,97401.78
2024-02-02T07:28:41.401Z,97397.81
2024-02-02T07:31:10.468Z,97396.63
2024-02-02T07:33:42.900Z,97407.25
2024-02-02T07:36:13.947Z,97403.31
2024-02-02T07:38:55.084Z,97401.13
2024-02-02T07:41:28.197Z,97400.81
2024-02-02T07:44:03.197Z,97395.25
2024-02-02T07:46:31.654Z,97393.72
2024-02-02T07:48:59.636Z,97388.34
2024-02-02T07:51:28.345Z,97394.22
2024-02-02T07:53:56.242Z,97396.00
2024-02-02T07:56:25.826Z,97374.16
2024-02-02T07:58:53.950Z,97372.00
2024-02-02T08:01:21.724Z,97377.56
2024-02-02T08:03:49.768Z,97384.31
2024-02-02T08:06:17.676Z,97385.97
2024-02-02T08:08:45.495Z,97387.34
2024-02-02T08:11:13.567Z,97398.94
2024-02-02T08:13:41.428Z,97394.56
2024-02-02T08:16:09.938Z,97390.66
2024-02-02T08:18:39.884Z,97377.00
2024-02-02T08:21:08.549Z,97380.97
2024-02-02T08:23:38.221Z,97381.16
2024-02-02T08:26:07.426Z,97395.03
2024-02-02T08:28:42.274Z,97390.88
2024-02-02T08:31:16.597Z,97389.44
2024-02-02T08:33:44.643Z,97388.56
2024-02-02T08:36:12.581Z,97386.91
2024-02-02T08:38:42.170Z,97358.59
2024-02-02T08:41:10.027Z,97360.53
2024-02-02T08:43:38.449Z,97388.44
2024-02-02T08:46:11.303Z,97378.72
2024-02-02T08:48:48.182Z,97395.84
2024-02-02T08:51:22.217Z,97399.63
2024-02-02T08:54:11.333Z,97400.41
2024-02-02T08:56:41.739Z,97397.69
2024-02-02T08:59:33.135Z,97407.00
2024-02-02T09:02:01.711Z,97391.59
2024-02-02T09:04:53.256Z,97409.25
2024-02-02T09:07:21.084Z,97394.78
2024-02-02T09:09:49.741Z,97402.47
2024-02-02T09:12:17.430Z,97428.06
2024-02-02T09:14:46.468Z,97414.53
2024-02-02T09:17:14.472Z,97421.00
2024-02-02T09:19:44.627Z,97418.84
2024-02-02T09:22:19.110Z,97420.28
2024-02-02T09:24:52.574Z,97413.19
2024-02-02T09:27:37.116Z,97414.31
2024-02-02T09:30:19.438Z,97426.38
2024-02-02T09:32:47.484Z,97404.97
2024-02-02T09:35:53.682Z,97431.63
2024-02-02T09:38:21.652Z,97439.22
2024-02-02T09:41:07.669Z,97451.19
2024-02-02T09:43:45.580Z,97432.75
2024-02-02T09:46:23.583Z,97443.09
2024-02-02T09:49:25.387Z,97438.69
2024-02-02T09:52:32.725Z,97433.22
2024-02-02T09:55:25.293Z,97448.91
2024-02-02T09:58:40.867Z,97443.75
2024-02-02T10:01:44.455Z,97426.22
2024-02-02T10:04:32.160Z,97429.03
2024-02-02T10:07:50.624Z,97430.88
2024-02-02T10:10:56.576Z,97417.09
2024-02-02T10:13:39.429Z,97421.84
2024-02-02T10:16:51.378Z,97425.19
2024-02-02T10:19:37.687Z,97419.91
2024-02-02T10:22:36.898Z,97410.88
2024-02-02T10:25:26.617Z,97399.38
2024-02-02T10:28:13.256Z,97405.75
2024-02-02T10:30:52.916Z,97405.66
2024-02-02T10:33:59.012Z,97388.53
2024-02-02T10:36:40.768Z,97401.94
2024-02-02T10:39:33.994Z,97394.56
2024-02-02T10:42:21.970Z,97373.31
2024-02-02T10:45:17.727Z,97401.28
2024-02-02T10:47:57.653Z,97396.31
2024-02-02T10:50:39.494Z,97393.03
2024-02-02T10:53:19.032Z,97392.63
2024-02-02T10:55:59.813Z,97393.78
2024-02-02T10:58:33.266Z,97389.78
2024-02-02T11:01:39.426Z,97379.56
2024-02-02T11:04:21.331Z,97389.22
2024-02-02T11:07:07.850Z,97378.69
2024-02-02T11:09:54.801Z,97367.22
2024-02-02T11:12:25.895Z,97363.28
2024-02-02T11:15:18.131Z,97367.53
2024-02-02T11:18:09.173Z,97359.25
2024-02-02T11:20:52.535Z,97352.59
2024-02-02T11:23:33.270Z,97351.72
2024-02-02T11:26:12.756Z,97360.53
2024-02-02T11:28:56.584Z,97344.97
2024-02-02T11:31:51.374Z,97351.13
2024-02-02T11:34:53.229Z,97340.47
2024-02-02T11:37:47.092Z,97338.38
2024-02-02T11:40:16.474Z,97318.56
2024-02-02T11:42:45.668Z,97322.09
2024-02-02T11:45:19.530Z,97321.91
2024-02-02T11:48:00.426Z,97313.97
2024-02-02T11:50:44.250Z,97314.66
2024-02-02T11:53:24.238Z,97323.69
2024-02-02T11:55:56.873Z,97304.91
2024-02-02T11:58:26.700Z,97310.44
2024-02-02T12:01:00.801Z,97289.44
2024-02-02T12:03:50.104Z,97295.25
2024-02-02T12:06:20.745Z,97289.34
2024-02-02T12:09:29.817Z,97288.25
2024-02-02T12:11:58.440Z,97271.56
2024-02-02T12:14:29.046Z,97292.47
2024-02-02T12:16:56.938Z,97279.38
2024-02-02T12:19:24.810Z,97260.25
2024-02-02T12:21:53.286Z,97278.28
2024-02-02T12:24:23.601Z,97270.81
2024-02-02T12:26:51.542Z,97274.69
2024-02-02T12:29:19.629Z,97268.81
2024-02-02T12:31:47.727Z,97275.13
2024-02-02T12:34:16.469Z,97262.94
2024-02-02T12:36:44.261Z,97275.81
2024-02-02T12:39:12.015Z,97273.69
2024-02-02T12:41:40.793Z,97271.19
2024-02-02T12:44:09.023Z,97271.50
2024-02-02T12:46:46.639Z,97264.22
2024-02-02T12:49:14.833Z,97255.03
2024-02-02T12:51:44.065Z,97265.13
2024-02-02T12:54:12.182Z,97251.97
2024-02-02T12:56:40.469Z,97237.34
2024-02-02T12:59:14.282Z,97240.91
2024-02-02T13:01:43.196Z,97231.47
2024-02-02T13:04:12.266Z,97216.59
2024-02-02T13:06:43.080Z,97234.00
2024-02-02T13:09:20.933Z,97240.41
2024-02-02T13:11:49.300Z,97244.56
2024-02-02T13:14:37.421Z,97259.88
2024-02-02T13:17:13.880Z,97260.22
2024-02-02T13:19:49.661Z,97246.72
2024-02-02T13:22:30.467Z,97257.97
2024-02-02T13:24:58.595Z,97264.00
2024-02-02T13:27:32.489Z,97262.63
2024-02-02T13:30:04.197Z,97262.63
2024-02-02T13:32:35.021Z,97264.25
2024-02-02T13:35:07.557Z,97266.31
2024-02-02T13:37:39.541Z,97288.16
2024-02-02T13:40:11.381Z,97277.38
2024-02-02T13:42:42.737Z,97277.78
2024-02-02T13:45:12.795Z,97286.88
2024-02-02T13:47:41.079Z,97284.84
2024-02-02T13:50:21.241Z,97256.31
2024-02-02T13:52:51.277Z,97241.53
2024-02-02T13:55:22.132Z,97270.78
2024-02-02T13:57:55.840Z,97248.63
2024-02-02T14:00:31.815Z,97230.03
2024-02-02T14:03:09.815Z,97235.38
2024-02-02T14:05:39.138Z,97220.31
2024-02-02T14:08:07.943Z,97224.88
2024-02-02T14:10:46.373Z,97263.09
2024-02-02T14:13:18.646Z,97241.47
2024-02-02T14:15:49.500Z,97247.53
2024-02-02T14:18:21.885Z,97255.53
2024-02-02T14:20:49.999Z,97244.41
2024-02-02T14:23:17.737Z,97251.78
2024-02-02T14:25:45.602Z,97224.97
2024-02-02T14:28:15.684Z,97228.44
2024-02-02T14:30:45.157Z,97209.41
2024-02-02T14:33:22.079Z,97232.41
2024-02-02T14:35:53.804Z,97241.00
2024-02-02T14:38:21.554Z,97229.66
2024-02-02T14:40:50.080Z,97216.50
2024-02-02T14:43:18.097Z,97210.81
2024-02-02T14:45:46.148Z,97220.44
2024-02-02T14:48:14.671Z,97190.97
2024-02-02T14:50:42.621Z,97192.38
2024-02-02T14:53:10.338Z,97199.75
2024-02-02T14:55:41.333Z,97195.84
2024-02-02T14:58:09.515Z,97208.88
2024-02-02T15:00:45.781Z,97203.31
2024-02-02T15:03:14.379Z,97189.28
2024-02-02T15:05:42.552Z,97183.59
2024-02-02T15:08:11.552Z,97192.38
2024-02-02T15:10:42.342Z,97197.19
2024-02-02T15:13:11.828Z,97180.75
2024-02-02T15:15:39.901Z,97158.00
2024-02-02T15:18:08.095Z,97159.09
2024-02-02T15:20:36.035Z,97167.59
2024-02-02T15:23:03.872Z,97145.28
2024-02-02T15:25:31.693Z,97141.81
2024-02-02T15:27:59.453Z,97146.34
2024-02-02T15:30:27.299Z,97146.41
2024-02-02T15:32:55.129Z,97144.50
2024-02-02T15:35:23.003Z,97135.69
2024-02-02T15:37:50.967Z,97139.25
2024-02-02T15:40:20.993Z,97138.63
2024-02-02T15:42:51.552Z,97117.97
2024-02-02T15:45:19.733Z,97133.91
2024-02-02T15:47:51.359Z,97138.44
2024-02-02T15:50:19.838Z,97131.50
2024-02-02T15:52:48.151Z,97120.47
2024-02-02T15:55:16.204Z,97115.44
2024-02-02T15:57:46.873Z,97119.66
2024-02-02T16:00:17.952Z,97102.91
2024-02-02T16:02:46.533Z,97128.22
2024-02-02T16:05:20.276Z,97099.06
2024-02-02T16:07:48.302Z,97119.72
2024-02-02T16:10:18.382Z,97116.97
2024-02-02T16:12:46.755Z,97121.00
2024-02-02T16:15:14.723Z,97119.88
2024-02-02T16:17:43.092Z,97106.31
2024-02-02T16:20:11.894Z,97129.25
2024-02-02T16:22:41.064Z,97117.28
2024-02-02T16:25:10.284Z,97126.03
2024-02-02T16:27:38.936Z,97086.47
2024-02-02T16:30:07.630Z,97089.38
2024-02-02T16:32:35.491Z,97094.47
2024-02-02T16:35:05.008Z,97084.00
2024-02-02T16:37:32.782Z,97079.00
2024-02-02T16:40:00.858Z,97071.66
2024-02-02T16:42:28.627Z,97087.34
2024-02-02T16:44:56.551Z,97077.97
2024-02-02T16:47:24.201Z,97083.50
2024-02-02T16:49:52.306Z,97086.56
2024-02-02T16:52:20.285Z,97087.00
2024-02-02T16:54:48.845Z,97086.31
2024-02-02T16:57:16.586Z,97101.28
2024-02-02T16:59:44.509Z,97090.66
2024-02-02T17:02:12.517Z,97080.75
2024-02-02T17:04:43.355Z,97101.03
2024-02-02T17:07:11.549Z,97084.38
2024-02-02T17:09:40.135Z,97107.78
2024-02-02T17:12:08.746Z,97105.41
2024-02-02T17:14:36.560Z,97116.78
2024-02-02T17:17:04.496Z,97105.53
2024-02-02T17:19:32.431Z,97104.28
2024-02-02T17:22:00.269Z,97097.31
2024-02-02T17:24:28.030Z,97096.00
2024-02-02T17:26:55.772Z,97096.81
2024-02-02T17:29:23.556Z,97107.13
2024-02-02T17:31:52.706Z,97105.53
2024-02-02T17:34:20.779Z,97117.28
2024-02-02T17:36:48.765Z,97103.97
2024-02-02T17:39:16.619Z,97102.31
2024-02-02T17:41:44.409Z,97092.72
2024-02-02T17:44:15.064Z,97108.50
2024-02-02T17:46:43.826Z,97099.16
2024-02-02T17:49:14.620Z,97104.88
2024-02-02T17:51:42.502Z,97108.72
2024-02-02T17:54:10.441Z,97115.28
2024-02-02T17:56:38.364Z,97132.94
2024-02-02T17:59:06.109Z,97110.06
2024-02-02T18:01:35.224Z,97109.31
2024-02-02T18:04:03.258Z,97099.78
2024-02-02T18:06:31.330Z,97093.31
2024-02-02T18:08:59.132Z,97110.13
2024-02-02T18:11:27.999Z,97088.16
2024-02-02T18:13:55.952Z,97095.63
2024-02-02T18:16:23.623Z,97070.25
2024-02-02T18:18:51.574Z,97076.47
2024-02-02T18:21:19.546Z,97080.78
2024-02-02T18:23:47.365Z,97096.53
2024-02-02T18:26:15.168Z,97092.72
2024-02-02T18:28:42.949Z,97068.56
2024-02-02T18:31:10.786Z,97057.38
2024-02-02T18:33:39.956Z,97075.22
2024-02-02T18:36:08.394Z,97067.97
2024-02-02T18:38:38.572Z,97075.75
2024-02-02T18:41:07.823Z,97052.63
2024-02-02T18:43:35.501Z,97061.25
2024-02-02T18:46:03.431Z,97082.69
2024-02-02T18:48:32.660Z,97071.00
2024-02-02T18:51:01.682Z,97074.66
2024-02-02T18:53:29.469Z,97076.63
2024-02-02T18:55:58.241Z,97079.63
2024-02-02T18:58:32.190Z,97086.56
2024-02-02T19:01:07.421Z,97065.97
2024-02-02T19:03:35.377Z,97063.88
2024-02-02T19:06:03.784Z,97049.34
2024-02-02T19:08:31.798Z,97045.59
2024-02-02T19:11:02.414Z,97064.06
2024-02-02T19:13:30.253Z,97046.66
2024-02-02T19:16:00.046Z,97053.16
2024-02-02T19:18:28.173Z,97046.59
2024-02-02T19:20:58.896Z,97060.03
2024-02-02T19:23:26.619Z,97051.03
2024-02-02T19:25:54.471Z,97055.72
2024-02-02T19:28:22.268Z,97044.56
2024-02-02T19:30:54.210Z,97047.31
2024-02-02T19:33:22.323Z,97045.38
2024-02-02T19:35:50.060Z,97047.88
2024-02-02T19:38:17.938Z,97057.91
2024-02-02T19:40:45.670Z,97060.41
2024-02-02T19:43:13.655Z,97062.31
2024-02-02T19:45:42.016Z,97073.09
2024-02-02T19:48:10.026Z,97055.44
2024-02-02T19:50:37.760Z,97064.19
2024-02-02T19:53:07.515Z,97051.72
2024-02-02T19:55:35.270Z,97057.47
2024-02-02T19:58:03.026Z,97059.59
2024-02-02T20:00:32.976Z,97048.09
2024-02-02T20:03:00.994Z,97042.66
2024-02-02T20:05:31.772Z,97023.94
2024-02-02T20:07:59.628Z,97015.88
2024-02-02T20:10:27.338Z,97030.63
2024-02-02T20:12:55.245Z,97041.25
2024-02-02T20:15:23.044Z,97040.91
2024-02-02T20:17:50.942Z,97037.19
2024-02-02T20:20:18.767Z,97044.72
2024-02-02T20:22:46.650Z,97051.81
2024-02-02T20:25:14.402Z,97042.06
2024-02-02T20:27:42.150Z,97035.03
2024-02-02T20:30:10.762Z,97051.44
2024-02-02T20:32:38.482Z,97029.28
2024-02-02T20:35:08.213Z,97036.38
2024-02-02T20:37:35.973Z,97027.94
2024-02-02T20:40:05.397Z,97021.91
2024-02-02T20:42:33.262Z,97031.31
2024-02-02T20:45:03.243Z,97011.03
2024-02-02T20:47:33.838Z,97014.06
2024-02-02T20:50:01.636Z,97024.44
2024-02-02T20:52:29.949Z,97013.91
2024-02-02T20:54:57.916Z,97021.19
2024-02-02T20:57:26.758Z,97030.75
2024-02-02T20:59:54.685Z,97005.81
2024-02-02T21:02:22.477Z,97016.50
2024-02-02T21:04:52.234Z,96995.41
2024-02-02T21:07:20.217Z,97007.47
2024-02-02T21:09:47.996Z,97005.63
2024-02-02T21:12:15.750Z,97015.47
2024-02-02T21:14:43.492Z,97012.72
2024-02-02T21:17:11.701Z,97012.56
2024-02-02T21:19:41.077Z,97014.28
2024-02-02T21:22:08.882Z,97008.97
2024-02-02T21:24:36.606Z,97008.59
2024-02-02T21:27:04.765Z,97004.31
2024-02-02T21:29:32.819Z,97006.63
2024-02-02T21:32:00.895Z,97002.72
2024-02-02T21:34:28.725Z,96994.31
2024-02-02T21:36:56.840Z,96992.50
2024-02-02T21:39:24.552Z,96977.66
2024-02-02T21:41:52.330Z,96984.53
2024-02-02T21:44:22.245Z,96978.13
2024-02-02T21:46:51.225Z,96980.91
2024-02-02T21:49:19.139Z,96993.91
2024-02-02T21:51:47.022Z,96983.09
2024-02-02T21:54:14.954Z,96991.38
2024-02-02T21:56:43.745Z,96986.06
2024-02-02T21:59:11.529Z,96989.09
2024-02-02T22:01:39.868Z,96971.25
2024-02-02T22:04:07.780Z,96994.94
2024-02-02T22:06:35.602Z,96994.50
2024-02-02T22:09:03.943Z,96996.75
2024-02-02T22:11:31.657Z,96975.19
2024-02-02T22:13:59.569Z,96971.66
2024-02-02T22:16:27.394Z,96958.34
2024-02-02T22:18:55.355Z,96956.00
2024-02-02T22:21:26.526Z,96963.88
2024-02-02T22:23:54.270Z,96938.22
2024-02-02T22:26:22.632Z,96948.41
2024-02-02T22:28:50.611Z,96955.50
2024-02-02T22:31:22.165Z,96947.31
2024-02-02T22:33:51.589Z,96933.81
2024-02-02T22:36:27.165Z,96914.38
2024-02-02T22:38:56.309Z,96923.50
2024-02-02T22:41:32.942Z,96915.03
2024-02-02T22:44:02.926Z,96904.09
2024-02-02T22:46:32.512Z,96881.44
2024-02-02T22:49:01.454Z,96892.88
2024-02-02T22:51:29.534Z,96895.19
2024-02-02T22:53:57.669Z,96908.19
2024-02-02T22:56:25.745Z,96907.94
2024-02-02T22:58:53.602Z,96919.50
2024-02-02T23:01:21.427Z,96901.38
2024-02-02T23:03:49.454Z,96908.50
2024-02-02T23:06:17.401Z,96904.50
2024-02-02T23:08:45.286Z,96908.81
2024-02-02T23:11:16.076Z,96901.38
2024-02-02T23:13:45.462Z,96906.41
2024-02-02T23:16:14.023Z,96892.22
2024-02-02T23:18:41.788Z,96915.97
2024-02-02T23:21:10.118Z,96902.97
2024-02-02T23:23:37.937Z,96909.31
2024-02-02T23:26:06.122Z,96904.50
2024-02-02T23:28:33.984Z,96889.69
2024-02-02T23:31:02.266Z,96891.41
2024-02-02T23:33:30.508Z,96891.06
2024-02-02T23:35:58.518Z,96888.06
2024-02-02T23:38:26.208Z,96876.81
2024-02-02T23:40:54.313Z,96880.75
2024-02-02T23:43:22.071Z,96867.66
2024-02-02T23:45:50.115Z,96873.38
2024-02-02T23:48:18.564Z,96860.31
2024-02-02T23:50:46.627Z,96835.28
2024-02-02T23:53:14.461Z,96855.25
2024-02-02T23:55:42.369Z,96851.69
2024-02-02T23:58:10.143Z,96848.41
